sensor_id;sensor_type;location;lat;lon;timestamp;pressure;altitude;pressure_sealevel;temperature;humidity
26376;BME280;30544;42.196;24.336;2023-08-30T00:00:42;97979.25;;;26.34;55.74
26376;BME280;30544;42.196;24.336;2023-08-30T00:03:19;97975.16;;;26.32;55.68
26376;BME280;30544;42.196;24.336;2023-08-30T00:05:46;97970.63;;;26.27;56.26
26376;BME280;30544;42.196;24.336;2023-08-30T00:08:13;97972.66;;;26.27;55.69
26376;BME280;30544;42.196;24.336;2023-08-30T00:10:43;97967.84;;;26.31;55.61
26376;BME280;30544;42.196;24.336;2023-08-30T00:13:14;97956.81;;;26.26;55.53
26376;BME280;30544;42.196;24.336;2023-08-30T00:15:42;97961.28;;;26.27;55.94
26376;BME280;30544;42.196;24.336;2023-08-30T00:18:11;97959.75;;;26.33;55.35
26376;BME280;30544;42.196;24.336;2023-08-30T00:20:41;97953.88;;;26.45;55.38
26376;BME280;30544;42.196;24.336;2023-08-30T00:23:10;97956.78;;;26.49;55.17
26376;BME280;30544;42.196;24.336;2023-08-30T00:25:38;97954.53;;;26.35;55.69
26376;BME280;30544;42.196;24.336;2023-08-30T00:28:08;97952.50;;;26.35;55.56
26376;BME280;30544;42.196;24.336;2023-08-30T00:30:35;97950.75;;;26.27;55.70
26376;BME280;30544;42.196;24.336;2023-08-30T00:33:03;97953.91;;;26.22;55.63
26376;BME280;30544;42.196;24.336;2023-08-30T00:35:30;97955.31;;;26.09;56.15
26376;BME280;30544;42.196;24.336;2023-08-30T00:38:01;97962.63;;;26.10;56.47
26376;BME280;30544;42.196;24.336;2023-08-30T00:40:28;97961.88;;;26.13;55.64
26376;BME280;30544;42.196;24.336;2023-08-30T00:42:57;97961.81;;;26.09;55.91
26376;BME280;30544;42.196;24.336;2023-08-30T00:45:29;97964.91;;;26.01;56.37
26376;BME280;30544;42.196;24.336;2023-08-30T00:47:59;97966.38;;;25.91;55.92
26376;BME280;30544;42.196;24.336;2023-08-30T00:50:31;97967.69;;;25.97;56.43
26376;BME280;30544;42.196;24.336;2023-08-30T00:53:03;97976.25;;;26.01;56.38
26376;BME280;30544;42.196;24.336;2023-08-30T00:55:38;97967.56;;;26.13;55.79
26376;BME280;30544;42.196;24.336;2023-08-30T00:58:07;97971.41;;;26.01;56.01
26376;BME280;30544;42.196;24.336;2023-08-30T01:00:38;97970.09;;;25.95;56.42
26376;BME280;30544;42.196;24.336;2023-08-30T01:03:07;97971.41;;;26.01;56.25
26376;BME280;30544;42.196;24.336;2023-08-30T01:05:33;97966.63;;;26.05;56.44
26376;BME280;30544;42.196;24.336;2023-08-30T01:08:00;97975.59;;;26.07;55.96
26376;BME280;30544;42.196;24.336;2023-08-30T01:10:38;97978.66;;;25.99;55.92
26376;BME280;30544;42.196;24.336;2023-08-30T01:13:12;97983.47;;;25.95;56.25
26376;BME280;30544;42.196;24.336;2023-08-30T01:15:45;97986.06;;;26.03;56.06
26376;BME280;30544;42.196;24.336;2023-08-30T01:18:17;97988.78;;;25.96;56.20
26376;BME280;30544;42.196;24.336;2023-08-30T01:20:47;97994.41;;;25.93;56.04
26376;BME280;30544;42.196;24.336;2023-08-30T01:26:12;97990.59;;;25.85;56.78
26376;BME280;30544;42.196;24.336;2023-08-30T01:28:41;97988.91;;;25.81;57.42
26376;BME280;30544;42.196;24.336;2023-08-30T01:31:08;97987.25;;;25.79;57.39
26376;BME280;30544;42.196;24.336;2023-08-30T01:33:40;98000.19;;;25.77;57.39
26376;BME280;30544;42.196;24.336;2023-08-30T01:36:29;98014.06;;;25.82;57.04
26376;BME280;30544;42.196;24.336;2023-08-30T01:38:57;98015.03;;;25.90;56.49
26376;BME280;30544;42.196;24.336;2023-08-30T01:41:28;98013.19;;;25.78;56.64
26376;BME280;30544;42.196;24.336;2023-08-30T01:44:00;98015.13;;;25.74;57.05
26376;BME280;30544;42.196;24.336;2023-08-30T01:46:32;98010.22;;;25.71;57.52
26376;BME280;30544;42.196;24.336;2023-08-30T01:49:03;98004.22;;;25.76;56.89
26376;BME280;30544;42.196;24.336;2023-08-30T01:51:33;98005.81;;;25.73;57.19
26376;BME280;30544;42.196;24.336;2023-08-30T01:54:02;97996.75;;;25.68;57.04
26376;BME280;30544;42.196;24.336;2023-08-30T01:56:30;98000.50;;;25.72;57.03
26376;BME280;30544;42.196;24.336;2023-08-30T01:59:03;98005.88;;;25.77;57.20
26376;BME280;30544;42.196;24.336;2023-08-30T02:01:30;98008.00;;;25.84;56.86
26376;BME280;30544;42.196;24.336;2023-08-30T02:03:57;98002.75;;;25.86;56.67
26376;BME280;30544;42.196;24.336;2023-08-30T02:06:28;98002.41;;;25.87;56.52
26376;BME280;30544;42.196;24.336;2023-08-30T02:09:02;98003.59;;;25.86;56.46
26376;BME280;30544;42.196;24.336;2023-08-30T02:11:36;97999.09;;;25.85;57.15
26376;BME280;30544;42.196;24.336;2023-08-30T02:14:05;97995.72;;;25.76;57.58
26376;BME280;30544;42.196;24.336;2023-08-30T02:16:42;97995.09;;;25.67;57.29
26376;BME280;30544;42.196;24.336;2023-08-30T02:19:10;97997.03;;;25.63;57.71
26376;BME280;30544;42.196;24.336;2023-08-30T02:21:40;97999.13;;;25.66;57.77
26376;BME280;30544;42.196;24.336;2023-08-30T02:24:09;97998.31;;;25.65;57.88
26376;BME280;30544;42.196;24.336;2023-08-30T02:26:40;97997.03;;;25.63;57.76
26376;BME280;30544;42.196;24.336;2023-08-30T02:29:10;97994.16;;;25.59;57.27
26376;BME280;30544;42.196;24.336;2023-08-30T02:31:40;98003.84;;;25.58;57.16
26376;BME280;30544;42.196;24.336;2023-08-30T02:34:10;97999.66;;;25.52;57.40
26376;BME280;30544;42.196;24.336;2023-08-30T02:36:39;97993.03;;;25.44;57.62
26376;BME280;30544;42.196;24.336;2023-08-30T02:39:08;97993.94;;;25.48;57.45
26376;BME280;30544;42.196;24.336;2023-08-30T02:41:35;98002.00;;;25.46;57.57
26376;BME280;30544;42.196;24.336;2023-08-30T02:44:10;98006.63;;;25.35;57.80
26376;BME280;30544;42.196;24.336;2023-08-30T02:46:38;98002.91;;;25.31;58.07
26376;BME280;30544;42.196;24.336;2023-08-30T02:49:06;98005.75;;;25.31;57.75
26376;BME280;30544;42.196;24.336;2023-08-30T02:51:37;98007.38;;;25.32;57.68
26376;BME280;30544;42.196;24.336;2023-08-30T02:54:04;98012.69;;;25.34;57.50
26376;BME280;30544;42.196;24.336;2023-08-30T02:56:34;98004.31;;;25.41;57.25
26376;BME280;30544;42.196;24.336;2023-08-30T02:59:00;98006.63;;;25.35;57.46
26376;BME280;30544;42.196;24.336;2023-08-30T03:01:31;98005.75;;;25.31;57.27
26376;BME280;30544;42.196;24.336;2023-08-30T03:03:59;98013.06;;;25.32;57.26
26376;BME280;30544;42.196;24.336;2023-08-30T03:06:30;98024.72;;;25.27;57.39
26376;BME280;30544;42.196;24.336;2023-08-30T03:09:00;98025.16;;;25.29;57.46
26376;BME280;30544;42.196;24.336;2023-08-30T03:11:28;98017.91;;;25.32;57.51
26376;BME280;30544;42.196;24.336;2023-08-30T03:13:55;98034.28;;;25.38;57.25
26376;BME280;30544;42.196;24.336;2023-08-30T03:16:23;98025.75;;;25.38;57.67
26376;BME280;30544;42.196;24.336;2023-08-30T03:18:59;98031.81;;;25.37;57.69
26376;BME280;30544;42.196;24.336;2023-08-30T03:21:31;98023.31;;;25.37;57.45
26376;BME280;30544;42.196;24.336;2023-08-30T03:23:59;98025.75;;;25.38;57.13
26376;BME280;30544;42.196;24.336;2023-08-30T03:26:26;98024.03;;;25.34;57.06
26376;BME280;30544;42.196;24.336;2023-08-30T03:28:53;98027.69;;;25.34;57.00
26376;BME280;30544;42.196;24.336;2023-08-30T03:31:20;98023.66;;;25.35;56.77
26376;BME280;30544;42.196;24.336;2023-08-30T03:33:48;98029.31;;;25.35;57.02
26376;BME280;30544;42.196;24.336;2023-08-30T03:36:16;98024.56;;;25.39;56.87
26376;BME280;30544;42.196;24.336;2023-08-30T03:38:45;98034.34;;;25.42;56.84
26376;BME280;30544;42.196;24.336;2023-08-30T03:41:12;98035.16;;;25.42;57.03
26376;BME280;30544;42.196;24.336;2023-08-30T03:43:39;98046.72;;;25.34;57.13
26376;BME280;30544;42.196;24.336;2023-08-30T03:46:07;98040.84;;;25.42;56.87
26376;BME280;30544;42.196;24.336;2023-08-30T03:48:34;98040.78;;;25.39;57.09
26376;BME280;30544;42.196;24.336;2023-08-30T03:51:11;98049.94;;;25.13;57.63
26376;BME280;30544;42.196;24.336;2023-08-30T03:53:39;98045.75;;;25.07;57.83
26376;BME280;30544;42.196;24.336;2023-08-30T03:56:09;98056.66;;;25.24;57.79
26376;BME280;30544;42.196;24.336;2023-08-30T03:58:35;98048.97;;;25.05;57.55
26376;BME280;30544;42.196;24.336;2023-08-30T04:01:03;98046.03;;;25.02;58.31
26376;BME280;30544;42.196;24.336;2023-08-30T04:03:32;98041.22;;;24.86;58.71
26376;BME280;30544;42.196;24.336;2023-08-30T04:06:02;98044.28;;;24.97;58.30
26376;BME280;30544;42.196;24.336;2023-08-30T04:08:31;98051.25;;;24.84;58.44
26376;BME280;30544;42.196;24.336;2023-08-30T04:10:58;98044.50;;;24.88;58.60
26376;BME280;30544;42.196;24.336;2023-08-30T04:13:28;98054.47;;;24.82;58.78
26376;BME280;30544;42.196;24.336;2023-08-30T04:16:02;98052.63;;;24.90;58.64
26376;BME280;30544;42.196;24.336;2023-08-30T04:18:29;98053.50;;;25.10;58.42
26376;BME280;30544;42.196;24.336;2023-08-30T04:20:58;98063.81;;;25.18;58.23
26376;BME280;30544;42.196;24.336;2023-08-30T04:23:27;98064.63;;;25.18;58.14
26376;BME280;30544;42.196;24.336;2023-08-30T04:25:54;98065.25;;;25.28;58.01
26376;BME280;30544;42.196;24.336;2023-08-30T04:28:21;98073.75;;;25.28;58.21
26376;BME280;30544;42.196;24.336;2023-08-30T04:30:50;98071.81;;;25.32;58.32
26376;BME280;30544;42.196;24.336;2023-08-30T04:33:25;98073.31;;;25.45;58.14
26376;BME280;30544;42.196;24.336;2023-08-30T04:35:52;98074.66;;;25.51;57.83
26376;BME280;30544;42.196;24.336;2023-08-30T04:38:22;98083.25;;;25.55;57.58
26376;BME280;30544;42.196;24.336;2023-08-30T04:40:48;98073.75;;;25.66;57.67
26376;BME280;30544;42.196;24.336;2023-08-30T04:43:15;98072.19;;;25.69;56.91
26376;BME280;30544;42.196;24.336;2023-08-30T04:45:48;98067.44;;;25.73;56.73
26376;BME280;30544;42.196;24.336;2023-08-30T04:48:15;98067.13;;;25.78;56.55
26376;BME280;30544;42.196;24.336;2023-08-30T04:50:44;98075.50;;;25.71;56.71
26376;BME280;30544;42.196;24.336;2023-08-30T04:53:12;98074.31;;;25.72;56.11
26376;BME280;30544;42.196;24.336;2023-08-30T04:55:41;98080.44;;;25.74;56.69
26376;BME280;30544;42.196;24.336;2023-08-30T04:58:09;98068.53;;;25.88;56.47
26376;BME280;30544;42.196;24.336;2023-08-30T05:00:37;98063.31;;;25.90;56.46
26376;BME280;30544;42.196;24.336;2023-08-30T05:03:05;98070.09;;;25.85;56.29
26376;BME280;30544;42.196;24.336;2023-08-30T05:05:36;98078.31;;;25.90;56.31
26376;BME280;30544;42.196;24.336;2023-08-30T05:08:03;98087.00;;;25.78;56.53
26376;BME280;30544;42.196;24.336;2023-08-30T05:10:33;98085.47;;;25.84;56.79
26376;BME280;30544;42.196;24.336;2023-08-30T05:13:00;98083.69;;;25.95;56.48
26376;BME280;30544;42.196;24.336;2023-08-30T05:15:29;98080.97;;;26.02;56.58
26376;BME280;30544;42.196;24.336;2023-08-30T05:18:03;98078.59;;;26.04;57.06
26376;BME280;30544;42.196;24.336;2023-08-30T05:20:38;98076.25;;;26.10;57.16
26376;BME280;30544;42.196;24.336;2023-08-30T05:23:05;98081.66;;;26.19;56.97
26376;BME280;30544;42.196;24.336;2023-08-30T05:25:32;98087.13;;;26.27;56.33
26376;BME280;30544;42.196;24.336;2023-08-30T05:27:59;98082.41;;;26.35;56.84
26376;BME280;30544;42.196;24.336;2023-08-30T05:30:26;98080.53;;;26.43;56.31
26376;BME280;30544;42.196;24.336;2023-08-30T05:32:54;98082.22;;;26.47;56.05
26376;BME280;30544;42.196;24.336;2023-08-30T05:35:22;98085.50;;;26.49;55.40
26376;BME280;30544;42.196;24.336;2023-08-30T05:37:50;98099.75;;;26.53;55.43
26376;BME280;30544;42.196;24.336;2023-08-30T05:40:17;98088.91;;;26.58;55.21
26376;BME280;30544;42.196;24.336;2023-08-30T05:42:48;98095.09;;;26.64;55.90
26376;BME280;30544;42.196;24.336;2023-08-30T05:45:16;98092.38;;;26.71;55.77
26376;BME280;30544;42.196;24.336;2023-08-30T05:47:45;98097.69;;;26.73;54.99
26376;BME280;30544;42.196;24.336;2023-08-30T05:50:14;98101.81;;;26.79;55.19
26376;BME280;30544;42.196;24.336;2023-08-30T05:52:45;98110.91;;;26.88;55.09
26376;BME280;30544;42.196;24.336;2023-08-30T05:55:13;98108.13;;;26.91;55.15
26376;BME280;30544;42.196;24.336;2023-08-30T05:57:46;98112.34;;;27.01;54.85
26376;BME280;30544;42.196;24.336;2023-08-30T06:00:13;98112.09;;;27.10;54.42
26376;BME280;30544;42.196;24.336;2023-08-30T06:02:40;98104.84;;;27.16;55.03
26376;BME280;30544;42.196;24.336;2023-08-30T06:05:11;98103.25;;;27.18;54.49
26376;BME280;30544;42.196;24.336;2023-08-30T06:07:39;98116.34;;;27.23;53.87
26376;BME280;30544;42.196;24.336;2023-08-30T06:10:09;98108.09;;;27.14;54.66
26376;BME280;30544;42.196;24.336;2023-08-30T06:12:37;98117.69;;;27.33;53.89
26376;BME280;30544;42.196;24.336;2023-08-30T06:15:05;98128.94;;;27.52;53.41
26376;BME280;30544;42.196;24.336;2023-08-30T06:17:32;98128.66;;;27.61;52.85
26376;BME280;30544;42.196;24.336;2023-08-30T06:19:58;98121.94;;;27.72;52.69
26376;BME280;30544;42.196;24.336;2023-08-30T06:22:25;98117.28;;;27.91;52.51
26376;BME280;30544;42.196;24.336;2023-08-30T06:24:54;98121.00;;;27.98;52.44
26376;BME280;30544;42.196;24.336;2023-08-30T06:27:22;98113.53;;;27.86;51.32
26376;BME280;30544;42.196;24.336;2023-08-30T06:29:51;98105.97;;;28.01;50.76
26376;BME280;30544;42.196;24.336;2023-08-30T06:32:17;98106.81;;;28.02;50.09
26376;BME280;30544;42.196;24.336;2023-08-30T06:34:50;98115.13;;;28.17;51.04
26376;BME280;30544;42.196;24.336;2023-08-30T06:37:16;98116.38;;;28.20;50.83
26376;BME280;30544;42.196;24.336;2023-08-30T06:39:43;98114.84;;;28.26;50.40
26376;BME280;30544;42.196;24.336;2023-08-30T06:42:10;98121.72;;;28.25;50.05
26376;BME280;30544;42.196;24.336;2023-08-30T06:44:38;98108.78;;;28.31;49.31
26376;BME280;30544;42.196;24.336;2023-08-30T06:47:07;98123.84;;;28.32;48.16
26376;BME280;30544;42.196;24.336;2023-08-30T06:49:36;98124.38;;;28.41;48.04
26376;BME280;30544;42.196;24.336;2023-08-30T06:52:04;98124.78;;;28.43;47.88
26376;BME280;30544;42.196;24.336;2023-08-30T06:54:38;98135.50;;;28.57;47.55
26376;BME280;30544;42.196;24.336;2023-08-30T06:57:11;98133.13;;;28.66;47.54
26376;BME280;30544;42.196;24.336;2023-08-30T06:59:39;98130.44;;;28.84;48.00
26376;BME280;30544;42.196;24.336;2023-08-30T07:02:17;98132.56;;;28.90;47.16
26376;BME280;30544;42.196;24.336;2023-08-30T07:04:47;98134.63;;;28.93;46.92
26376;BME280;30544;42.196;24.336;2023-08-30T07:07:17;98135.06;;;28.99;46.57
26376;BME280;30544;42.196;24.336;2023-08-30T07:09:43;98137.22;;;29.13;46.36
26376;BME280;30544;42.196;24.336;2023-08-30T07:12:10;98133.56;;;29.16;46.12
26376;BME280;30544;42.196;24.336;2023-08-30T07:14:40;98130.78;;;29.26;45.93
26376;BME280;30544;42.196;24.336;2023-08-30T07:17:10;98118.25;;;29.42;46.10
26376;BME280;30544;42.196;24.336;2023-08-30T07:19:39;98124.44;;;29.54;45.78
26376;BME280;30544;42.196;24.336;2023-08-30T07:22:08;98122.88;;;29.68;45.86
26376;BME280;30544;42.196;24.336;2023-08-30T07:24:46;98119.69;;;29.80;45.72
26376;BME280;30544;42.196;24.336;2023-08-30T07:27:13;98115.63;;;29.88;45.21
26376;BME280;30544;42.196;24.336;2023-08-30T07:29:41;98120.16;;;30.00;44.56
26376;BME280;30544;42.196;24.336;2023-08-30T07:32:09;98106.75;;;30.11;44.20
26376;BME280;30544;42.196;24.336;2023-08-30T07:34:40;98115.78;;;30.23;45.18
26376;BME280;30544;42.196;24.336;2023-08-30T07:37:17;98124.38;;;30.38;45.18
26376;BME280;30544;42.196;24.336;2023-08-30T07:39:46;98131.72;;;30.32;44.26
26376;BME280;30544;42.196;24.336;2023-08-30T07:42:15;98122.31;;;30.35;44.16
26376;BME280;30544;42.196;24.336;2023-08-30T07:44:44;98131.75;;;30.46;44.14
26376;BME280;30544;42.196;24.336;2023-08-30T07:47:15;98132.59;;;30.61;43.74
26376;BME280;30544;42.196;24.336;2023-08-30T07:49:49;98128.94;;;30.78;44.45
26376;BME280;30544;42.196;24.336;2023-08-30T07:52:17;98128.94;;;30.89;43.47
26376;BME280;30544;42.196;24.336;2023-08-30T07:54:44;98123.22;;;31.03;43.15
26376;BME280;30544;42.196;24.336;2023-08-30T07:57:11;98108.50;;;30.97;42.78
26376;BME280;30544;42.196;24.336;2023-08-30T07:59:38;98118.69;;;31.05;42.97
26376;BME280;30544;42.196;24.336;2023-08-30T08:02:08;98120.34;;;31.17;41.85
26376;BME280;30544;42.196;24.336;2023-08-30T08:04:36;98119.13;;;31.32;41.41
26376;BME280;30544;42.196;24.336;2023-08-30T08:07:06;98117.84;;;31.51;42.11
26376;BME280;30544;42.196;24.336;2023-08-30T08:09:35;98112.09;;;31.58;41.48
26376;BME280;30544;42.196;24.336;2023-08-30T08:12:05;98116.22;;;31.47;41.22
26376;BME280;30544;42.196;24.336;2023-08-30T08:14:36;98115.78;;;31.52;41.87
26376;BME280;30544;42.196;24.336;2023-08-30T08:17:06;98120.31;;;31.38;41.64
26376;BME280;30544;42.196;24.336;2023-08-30T08:19:32;98117.44;;;31.38;41.61
26376;BME280;30544;42.196;24.336;2023-08-30T08:22:04;98119.50;;;31.38;41.08
26376;BME280;30544;42.196;24.336;2023-08-30T08:24:32;98115.81;;;31.41;41.36
26376;BME280;30544;42.196;24.336;2023-08-30T08:26:59;98113.78;;;31.45;41.39
26376;BME280;30544;42.196;24.336;2023-08-30T08:29:26;98116.19;;;31.50;40.37
26376;BME280;30544;42.196;24.336;2023-08-30T08:31:58;98109.28;;;31.44;41.44
26376;BME280;30544;42.196;24.336;2023-08-30T08:34:27;98113.72;;;31.56;41.53
26376;BME280;30544;42.196;24.336;2023-08-30T08:39:37;98096.50;;;31.70;41.71
26376;BME280;30544;42.196;24.336;2023-08-30T08:42:04;98111.69;;;31.53;40.69
26376;BME280;30544;42.196;24.336;2023-08-30T08:44:31;98098.97;;;31.57;40.98
26376;BME280;30544;42.196;24.336;2023-08-30T08:47:01;98099.06;;;31.43;41.45
26376;BME280;30544;42.196;24.336;2023-08-30T08:49:29;98101.47;;;31.59;41.74
26376;BME280;30544;42.196;24.336;2023-08-30T08:51:58;98101.81;;;31.68;40.93
26376;BME280;30544;42.196;24.336;2023-08-30T08:54:29;98099.38;;;31.73;41.06
26376;BME280;30544;42.196;24.336;2023-08-30T08:56:57;98094.88;;;31.76;40.89
26376;BME280;30544;42.196;24.336;2023-08-30T08:59:25;98090.34;;;31.82;40.08
26376;BME280;30544;42.196;24.336;2023-08-30T09:01:55;98082.94;;;31.92;41.03
26376;BME280;30544;42.196;24.336;2023-08-30T09:04:31;98095.22;;;31.85;40.88
26376;BME280;30544;42.196;24.336;2023-08-30T09:06:58;98089.13;;;31.80;40.51
26376;BME280;30544;42.196;24.336;2023-08-30T09:09:27;98082.13;;;31.84;40.70
26376;BME280;30544;42.196;24.336;2023-08-30T09:11:57;98081.28;;;31.91;40.24
26376;BME280;30544;42.196;24.336;2023-08-30T09:14:24;98086.19;;;31.90;40.82
26376;BME280;30544;42.196;24.336;2023-08-30T09:16:54;98075.53;;;31.94;40.33
26376;BME280;30544;42.196;24.336;2023-08-30T09:19:22;98076.84;;;31.79;40.43
26376;BME280;30544;42.196;24.336;2023-08-30T09:21:56;98074.81;;;31.76;40.23
26376;BME280;30544;42.196;24.336;2023-08-30T09:24:23;98075.63;;;31.73;41.06
26376;BME280;30544;42.196;24.336;2023-08-30T09:26:53;98070.72;;;31.77;40.29
26376;BME280;30544;42.196;24.336;2023-08-30T09:29:23;98058.03;;;31.78;40.71
26376;BME280;30544;42.196;24.336;2023-08-30T09:31:55;98047.78;;;31.81;40.87
26376;BME280;30544;42.196;24.336;2023-08-30T09:34:25;98041.25;;;31.77;40.83
26376;BME280;30544;42.196;24.336;2023-08-30T09:36:53;98042.84;;;31.81;40.53
26376;BME280;30544;42.196;24.336;2023-08-30T09:39:24;98039.97;;;31.85;41.56
26376;BME280;30544;42.196;24.336;2023-08-30T09:41:50;98048.59;;;31.81;40.67
26376;BME280;30544;42.196;24.336;2023-08-30T09:44:19;98043.69;;;31.78;41.10
26376;BME280;30544;42.196;24.336;2023-08-30T09:46:51;98043.69;;;31.78;40.95
26376;BME280;30544;42.196;24.336;2023-08-30T09:49:19;98047.41;;;31.75;41.15
26376;BME280;30544;42.196;24.336;2023-08-30T09:51:51;98047.41;;;31.75;41.02
26376;BME280;30544;42.196;24.336;2023-08-30T09:54:19;98053.09;;;31.79;41.92
26376;BME280;30544;42.196;24.336;2023-08-30T09:56:52;98044.50;;;31.82;41.80
26376;BME280;30544;42.196;24.336;2023-08-30T09:59:22;98038.72;;;31.89;41.74
26376;BME280;30544;42.196;24.336;2023-08-30T10:01:51;98036.34;;;31.77;41.17
26376;BME280;30544;42.196;24.336;2023-08-30T10:04:19;98029.81;;;31.62;41.17
26376;BME280;30544;42.196;24.336;2023-08-30T10:06:49;98035.13;;;31.67;40.85
26376;BME280;30544;42.196;24.336;2023-08-30T10:09:25;98033.47;;;31.70;40.50
26376;BME280;30544;42.196;24.336;2023-08-30T10:11:54;98036.34;;;31.77;40.70
26376;BME280;30544;42.196;24.336;2023-08-30T10:14:26;98037.97;;;31.75;41.10
26376;BME280;30544;42.196;24.336;2023-08-30T10:17:01;98027.31;;;31.79;41.28
26376;BME280;30544;42.196;24.336;2023-08-30T10:19:33;98029.72;;;31.87;40.95
26376;BME280;30544;42.196;24.336;2023-08-30T10:22:04;98028.88;;;31.90;40.98
26376;BME280;30544;42.196;24.336;2023-08-30T10:25:02;98017.34;;;32.01;41.10
26376;BME280;30544;42.196;24.336;2023-08-30T10:27:31;98010.34;;;32.06;40.85
26376;BME280;30544;42.196;24.336;2023-08-30T10:30:03;98013.19;;;32.13;40.62
26376;BME280;30544;42.196;24.336;2023-08-30T10:32:40;98010.72;;;32.15;40.90
26376;BME280;30544;42.196;24.336;2023-08-30T10:35:10;98015.63;;;32.14;40.57
26376;BME280;30544;42.196;24.336;2023-08-30T10:37:42;98004.06;;;32.25;40.29
26376;BME280;30544;42.196;24.336;2023-08-30T10:40:11;98000.81;;;32.30;40.16
26376;BME280;30544;42.196;24.336;2023-08-30T10:42:40;98002.47;;;32.27;39.65
26376;BME280;30544;42.196;24.336;2023-08-30T10:45:12;97987.25;;;32.34;40.14
26376;BME280;30544;42.196;24.336;2023-08-30T10:47:46;97985.97;;;32.39;39.84
26376;BME280;30544;42.196;24.336;2023-08-30T10:50:40;97988.44;;;32.37;39.83
26376;BME280;30544;42.196;24.336;2023-08-30T10:53:13;97988.41;;;32.40;41.21
26376;BME280;30544;42.196;24.336;2023-08-30T10:55:39;97993.34;;;32.40;39.56
26376;BME280;30544;42.196;24.336;2023-08-30T10:58:13;97994.50;;;32.49;40.37
26376;BME280;30544;42.196;24.336;2023-08-30T11:00:43;97990.84;;;32.45;39.61
26376;BME280;30544;42.196;24.336;2023-08-30T11:03:14;97997.34;;;32.49;38.89
26376;BME280;30544;42.196;24.336;2023-08-30T11:05:47;97989.16;;;32.51;38.62
26376;BME280;30544;42.196;24.336;2023-08-30T11:08:17;97990.78;;;32.52;37.87
26376;BME280;30544;42.196;24.336;2023-08-30T11:10:44;97996.13;;;32.50;38.29
26376;BME280;30544;42.196;24.336;2023-08-30T11:13:15;97992.50;;;32.43;37.98
26376;BME280;30544;42.196;24.336;2023-08-30T11:15:42;97990.31;;;32.57;37.88
26376;BME280;30544;42.196;24.336;2023-08-30T11:18:10;97979.59;;;32.65;38.42
26376;BME280;30544;42.196;24.336;2023-08-30T11:20:39;97976.69;;;32.69;37.89
26376;BME280;30544;42.196;24.336;2023-08-30T11:23:09;97975.84;;;32.72;38.12
26376;BME280;30544;42.196;24.336;2023-08-30T11:25:37;97975.44;;;32.70;37.86
26376;BME280;30544;42.196;24.336;2023-08-30T11:28:11;97974.59;;;32.73;37.58
26376;BME280;30544;42.196;24.336;2023-08-30T11:30:40;97973.75;;;32.76;36.99
26376;BME280;30544;42.196;24.336;2023-08-30T11:33:08;97968.84;;;32.73;37.47
26376;BME280;30544;42.196;24.336;2023-08-30T11:35:37;97965.09;;;32.79;38.14
26376;BME280;30544;42.196;24.336;2023-08-30T11:38:05;97969.16;;;32.85;38.65
26376;BME280;30544;42.196;24.336;2023-08-30T11:40:36;97961.06;;;32.73;37.63
26376;BME280;30544;42.196;24.336;2023-08-30T11:43:06;97959.34;;;32.83;37.09
26376;BME280;30544;42.196;24.336;2023-08-30T11:45:33;97952.72;;;32.89;37.18
26376;BME280;30544;42.196;24.336;2023-08-30T11:48:02;97951.03;;;32.92;36.57
26376;BME280;30544;42.196;24.336;2023-08-30T11:50:29;97946.97;;;32.93;36.55
26376;BME280;30544;42.196;24.336;2023-08-30T11:52:59;97942.31;;;33.03;36.77
26376;BME280;30544;42.196;24.336;2023-08-30T11:55:30;97946.78;;;33.07;37.36
26376;BME280;30544;42.196;24.336;2023-08-30T11:57:56;97946.88;;;33.00;36.08
26376;BME280;30544;42.196;24.336;2023-08-30T12:00:26;97950.16;;;32.99;36.50
26376;BME280;30544;42.196;24.336;2023-08-30T12:02:53;97946.00;;;33.03;36.32
26376;BME280;30544;42.196;24.336;2023-08-30T12:05:22;97943.09;;;33.07;36.21
26376;BME280;30544;42.196;24.336;2023-08-30T12:07:52;97937.72;;;33.09;36.58
26376;BME280;30544;42.196;24.336;2023-08-30T12:10:18;97929.91;;;33.13;37.45
26376;BME280;30544;42.196;24.336;2023-08-30T12:12:47;97933.53;;;33.17;37.69
26376;BME280;30544;42.196;24.336;2023-08-30T12:15:22;97931.53;;;33.14;36.75
26376;BME280;30544;42.196;24.336;2023-08-30T12:17:51;97931.16;;;33.12;36.92
26376;BME280;30544;42.196;24.336;2023-08-30T12:20:22;97929.41;;;33.18;36.16
26376;BME280;30544;42.196;24.336;2023-08-30T12:22:59;97930.63;;;33.20;35.76
26376;BME280;30544;42.196;24.336;2023-08-30T12:25:26;97912.91;;;33.26;36.29
26376;BME280;30544;42.196;24.336;2023-08-30T12:27:58;97909.28;;;33.21;36.85
26376;BME280;30544;42.196;24.336;2023-08-30T12:30:27;97910.44;;;33.28;37.13
26376;BME280;30544;42.196;24.336;2023-08-30T12:33:02;97910.03;;;33.26;35.79
26376;BME280;30544;42.196;24.336;2023-08-30T12:35:31;97912.06;;;33.29;35.92
26376;BME280;30544;42.196;24.336;2023-08-30T12:38:00;97905.88;;;33.34;36.24
26376;BME280;30544;42.196;24.336;2023-08-30T12:40:26;97899.69;;;33.35;36.21
26376;BME280;30544;42.196;24.336;2023-08-30T12:42:53;97897.13;;;33.41;35.76
26376;BME280;30544;42.196;24.336;2023-08-30T12:45:24;97887.69;;;33.44;35.72
26376;BME280;30544;42.196;24.336;2023-08-30T12:47:52;97893.00;;;33.45;35.36
26376;BME280;30544;42.196;24.336;2023-08-30T12:50:19;97882.31;;;33.46;36.05
26376;BME280;30544;42.196;24.336;2023-08-30T12:52:47;97885.19;;;33.46;35.70
26376;BME280;30544;42.196;24.336;2023-08-30T12:55:16;97882.31;;;33.46;35.96
26376;BME280;30544;42.196;24.336;2023-08-30T12:57:44;97879.00;;;33.47;36.49
26376;BME280;30544;42.196;24.336;2023-08-30T13:00:13;97878.06;;;33.54;37.33
26376;BME280;30544;42.196;24.336;2023-08-30T13:02:43;97875.19;;;33.54;36.80
26376;BME280;30544;42.196;24.336;2023-08-30T13:05:13;97871.44;;;33.61;36.09
26376;BME280;30544;42.196;24.336;2023-08-30T13:07:41;97875.13;;;33.61;36.12